sensor_id;sensor_type;location;lat;lon;timestamp;P1;durP1;ratioP1;P2;durP2;ratioP2
34872;SDS011;21084;51.098;14.506;2023-01-28T00:02:14;60.30;;;21.92;;
34872;SDS011;21084;51.098;14.506;2023-01-28T00:04:43;56.90;;;21.20;;
34872;SDS011;21084;51.098;14.506;2023-01-28T00:07:11;64.90;;;22.70;;
34872;SDS011;21084;51.098;14.506;2023-01-28T00:09:41;58.03;;;21.75;;
34872;SDS011;21084;51.098;14.506;2023-01-28T00:12:10;59.40;;;22.27;;
34872;SDS011;21084;51.098;14.506;2023-01-28T00:14:38;53.70;;;20.45;;
34872;SDS011;21084;51.098;14.506;2023-01-28T00:17:06;50.72;;;18.63;;
34872;SDS011;21084;51.098;14.506;2023-01-28T00:19:35;47.63;;;19.60;;
34872;SDS011;21084;51.098;14.506;2023-01-28T00:22:03;45.85;;;18.98;;
34872;SDS011;21084;51.098;14.506;2023-01-28T00:24:32;43.22;;;17.23;;
34872;SDS011;21084;51.098;14.506;2023-01-28T00:27:02;38.55;;;16.80;;
34872;SDS011;21084;51.098;14.506;2023-01-28T00:29:30;42.92;;;17.10;;
34872;SDS011;21084;51.098;14.506;2023-01-28T00:31:59;37.60;;;16.58;;
34872;SDS011;21084;51.098;14.506;2023-01-28T00:34:27;36.28;;;15.65;;
34872;SDS011;21084;51.098;14.506;2023-01-28T00:36:56;38.25;;;15.95;;
34872;SDS011;21084;51.098;14.506;2023-01-28T00:39:25;30.25;;;14.73;;
34872;SDS011;21084;51.098;14.506;2023-01-28T00:41:54;29.60;;;13.45;;
34872;SDS011;21084;51.098;14.506;2023-01-28T00:44:24;32.75;;;15.85;;
34872;SDS011;21084;51.098;14.506;2023-01-28T00:46:52;35.50;;;16.67;;
34872;SDS011;21084;51.098;14.506;2023-01-28T00:49:21;35.75;;;16.73;;
34872;SDS011;21084;51.098;14.506;2023-01-28T00:51:50;30.83;;;15.32;;
34872;SDS011;21084;51.098;14.506;2023-01-28T00:54:18;33.65;;;16.38;;
34872;SDS011;21084;51.098;14.506;2023-01-28T00:56:47;32.75;;;15.95;;
34872;SDS011;21084;51.098;14.506;2023-01-28T00:59:16;32.95;;;16.48;;
34872;SDS011;21084;51.098;14.506;2023-01-28T01:01:45;30.30;;;15.20;;
34872;SDS011;21084;51.098;14.506;2023-01-28T01:04:14;34.10;;;16.13;;
34872;SDS011;21084;51.098;14.506;2023-01-28T01:06:52;38.08;;;16.77;;
34872;SDS011;21084;51.098;14.506;2023-01-28T01:09:21;35.75;;;16.60;;
34872;SDS011;21084;51.098;14.506;2023-01-28T01:11:49;32.28;;;16.25;;
34872;SDS011;21084;51.098;14.506;2023-01-28T01:14:18;34.88;;;15.85;;
34872;SDS011;21084;51.098;14.506;2023-01-28T01:16:48;39.30;;;17.97;;
34872;SDS011;21084;51.098;14.506;2023-01-28T01:21:45;36.33;;;16.77;;
34872;SDS011;21084;51.098;14.506;2023-01-28T01:24:16;38.35;;;17.50;;
34872;SDS011;21084;51.098;14.506;2023-01-28T01:26:45;38.17;;;17.70;;
34872;SDS011;21084;51.098;14.506;2023-01-28T01:29:13;39.63;;;17.63;;
34872;SDS011;21084;51.098;14.506;2023-01-28T01:31:42;40.85;;;18.77;;
34872;SDS011;21084;51.098;14.506;2023-01-28T01:34:12;39.20;;;19.00;;
34872;SDS011;21084;51.098;14.506;2023-01-28T01:39:10;36.60;;;17.63;;
34872;SDS011;21084;51.098;14.506;2023-01-28T01:41:39;38.60;;;18.00;;
34872;SDS011;21084;51.098;14.506;2023-01-28T01:47:10;34.05;;;16.70;;
34872;SDS011;21084;51.098;14.506;2023-01-28T01:49:40;40.55;;;18.23;;
34872;SDS011;21084;51.098;14.506;2023-01-28T01:52:09;39.97;;;18.85;;
34872;SDS011;21084;51.098;14.506;2023-01-28T01:54:43;38.33;;;18.52;;
34872;SDS011;21084;51.098;14.506;2023-01-28T01:57:16;38.92;;;18.77;;
34872;SDS011;21084;51.098;14.506;2023-01-28T01:59:51;41.53;;;19.23;;
34872;SDS011;21084;51.098;14.506;2023-01-28T02:02:20;43.72;;;19.63;;
34872;SDS011;21084;51.098;14.506;2023-01-28T02:04:51;46.30;;;21.52;;
34872;SDS011;21084;51.098;14.506;2023-01-28T02:07:19;46.38;;;19.35;;
34872;SDS011;21084;51.098;14.506;2023-01-28T02:09:48;44.65;;;19.45;;
34872;SDS011;21084;51.098;14.506;2023-01-28T02:12:18;43.42;;;19.80;;
34872;SDS011;21084;51.098;14.506;2023-01-28T02:14:49;42.25;;;21.10;;
34872;SDS011;21084;51.098;14.506;2023-01-28T02:17:20;48.20;;;19.77;;
34872;SDS011;21084;51.098;14.506;2023-01-28T02:19:52;43.03;;;21.42;;
34872;SDS011;21084;51.098;14.506;2023-01-28T02:25:25;49.42;;;22.35;;
34872;SDS011;21084;51.098;14.506;2023-01-28T02:28:11;48.92;;;22.23;;
34872;SDS011;21084;51.098;14.506;2023-01-28T02:30:52;51.03;;;22.75;;
34872;SDS011;21084;51.098;14.506;2023-01-28T02:33:28;54.45;;;23.20;;
34872;SDS011;21084;51.098;14.506;2023-01-28T02:36:02;47.90;;;22.38;;
34872;SDS011;21084;51.098;14.506;2023-01-28T02:38:40;48.13;;;21.85;;
34872;SDS011;21084;51.098;14.506;2023-01-28T02:41:13;53.60;;;23.77;;
34872;SDS011;21084;51.098;14.506;2023-01-28T02:43:49;52.70;;;23.05;;
34872;SDS011;21084;51.098;14.506;2023-01-28T02:46:20;52.83;;;22.23;;
34872;SDS011;21084;51.098;14.506;2023-01-28T02:49:19;51.20;;;21.95;;
34872;SDS011;21084;51.098;14.506;2023-01-28T02:51:57;49.58;;;22.33;;
34872;SDS011;21084;51.098;14.506;2023-01-28T02:54:50;53.22;;;24.50;;
34872;SDS011;21084;51.098;14.506;2023-01-28T02:57:28;48.13;;;23.00;;
34872;SDS011;21084;51.098;14.506;2023-01-28T03:00:05;48.13;;;21.88;;
34872;SDS011;21084;51.098;14.506;2023-01-28T03:02:40;51.58;;;23.33;;
34872;SDS011;21084;51.098;14.506;2023-01-28T03:05:16;57.42;;;25.08;;
34872;SDS011;21084;51.098;14.506;2023-01-28T03:07:52;59.70;;;25.48;;
34872;SDS011;21084;51.098;14.506;2023-01-28T03:10:21;52.05;;;24.40;;
34872;SDS011;21084;51.098;14.506;2023-01-28T03:12:52;54.88;;;26.08;;
34872;SDS011;21084;51.098;14.506;2023-01-28T03:15:42;60.50;;;24.25;;
34872;SDS011;21084;51.098;14.506;2023-01-28T03:18:31;64.47;;;26.40;;
34872;SDS011;21084;51.098;14.506;2023-01-28T03:21:21;58.13;;;26.40;;
34872;SDS011;21084;51.098;14.506;2023-01-28T03:24:11;57.70;;;24.27;;
34872;SDS011;21084;51.098;14.506;2023-01-28T03:27:02;51.13;;;23.05;;
34872;SDS011;21084;51.098;14.506;2023-01-28T03:29:54;51.92;;;21.33;;
34872;SDS011;21084;51.098;14.506;2023-01-28T03:32:44;52.58;;;24.23;;
34872;SDS011;21084;51.098;14.506;2023-01-28T03:35:31;48.08;;;23.75;;
34872;SDS011;21084;51.098;14.506;2023-01-28T03:38:20;57.65;;;25.13;;
34872;SDS011;21084;51.098;14.506;2023-01-28T03:40:49;61.10;;;25.17;;
34872;SDS011;21084;51.098;14.506;2023-01-28T03:43:18;54.22;;;23.98;;
34872;SDS011;21084;51.098;14.506;2023-01-28T03:45:47;61.42;;;24.85;;
34872;SDS011;21084;51.098;14.506;2023-01-28T03:48:19;64.07;;;24.95;;
34872;SDS011;21084;51.098;14.506;2023-01-28T03:50:49;57.75;;;25.13;;
34872;SDS011;21084;51.098;14.506;2023-01-28T03:53:18;56.38;;;25.20;;
34872;SDS011;21084;51.098;14.506;2023-01-28T03:55:47;42.10;;;17.90;;
34872;SDS011;21084;51.098;14.506;2023-01-28T03:58:17;47.67;;;21.67;;
34872;SDS011;21084;51.098;14.506;2023-01-28T04:00:47;51.50;;;20.92;;
34872;SDS011;21084;51.098;14.506;2023-01-28T04:03:16;49.15;;;20.38;;
34872;SDS011;21084;51.098;14.506;2023-01-28T04:05:57;51.10;;;19.45;;
34872;SDS011;21084;51.098;14.506;2023-01-28T04:08:26;40.50;;;19.33;;
34872;SDS011;21084;51.098;14.506;2023-01-28T04:10:55;46.33;;;20.83;;
34872;SDS011;21084;51.098;14.506;2023-01-28T04:13:24;48.42;;;20.00;;
34872;SDS011;21084;51.098;14.506;2023-01-28T04:15:52;44.40;;;19.77;;
34872;SDS011;21084;51.098;14.506;2023-01-28T04:18:20;47.85;;;22.58;;
34872;SDS011;21084;51.098;14.506;2023-01-28T04:20:54;51.35;;;22.77;;
34872;SDS011;21084;51.098;14.506;2023-01-28T04:23:22;52.55;;;22.33;;
34872;SDS011;21084;51.098;14.506;2023-01-28T04:25:51;50.25;;;21.17;;
34872;SDS011;21084;51.098;14.506;2023-01-28T04:28:19;45.67;;;20.85;;
34872;SDS011;21084;51.098;14.506;2023-01-28T04:30:48;54.58;;;22.58;;
34872;SDS011;21084;51.098;14.506;2023-01-28T04:33:16;59.20;;;21.80;;
34872;SDS011;21084;51.098;14.506;2023-01-28T04:35:45;54.22;;;22.50;;
34872;SDS011;21084;51.098;14.506;2023-01-28T04:38:15;55.40;;;22.88;;
34872;SDS011;21084;51.098;14.506;2023-01-28T04:40:43;52.65;;;22.45;;
34872;SDS011;21084;51.098;14.506;2023-01-28T04:43:15;58.65;;;24.42;;
34872;SDS011;21084;51.098;14.506;2023-01-28T04:48:13;68.05;;;25.17;;
34872;SDS011;21084;51.098;14.506;2023-01-28T04:50:43;55.25;;;24.73;;
34872;SDS011;21084;51.098;14.506;2023-01-28T04:53:12;54.72;;;24.23;;
34872;SDS011;21084;51.098;14.506;2023-01-28T04:55:43;62.53;;;25.40;;
34872;SDS011;21084;51.098;14.506;2023-01-28T04:58:11;62.60;;;24.77;;
34872;SDS011;21084;51.098;14.506;2023-01-28T05:00:40;56.92;;;23.88;;
34872;SDS011;21084;51.098;14.506;2023-01-28T05:03:08;55.42;;;23.60;;
34872;SDS011;21084;51.098;14.506;2023-01-28T05:05:37;52.55;;;23.35;;
34872;SDS011;21084;51.098;14.506;2023-01-28T05:08:05;51.83;;;21.38;;
34872;SDS011;21084;51.098;14.506;2023-01-28T05:10:34;51.22;;;22.75;;
34872;SDS011;21084;51.098;14.506;2023-01-28T05:13:04;48.25;;;21.85;;
34872;SDS011;21084;51.098;14.506;2023-01-28T05:15:32;48.38;;;20.55;;
34872;SDS011;21084;51.098;14.506;2023-01-28T05:18:00;52.58;;;22.88;;
34872;SDS011;21084;51.098;14.506;2023-01-28T05:20:29;52.90;;;22.08;;
34872;SDS011;21084;51.098;14.506;2023-01-28T05:22:57;44.10;;;20.92;;
34872;SDS011;21084;51.098;14.506;2023-01-28T05:25:26;46.40;;;22.33;;
34872;SDS011;21084;51.098;14.506;2023-01-28T05:27:54;44.35;;;20.23;;
34872;SDS011;21084;51.098;14.506;2023-01-28T05:30:24;39.88;;;19.27;;
34872;SDS011;21084;51.098;14.506;2023-01-28T05:32:53;46.53;;;20.85;;
34872;SDS011;21084;51.098;14.506;2023-01-28T05:35:23;51.53;;;26.30;;
34872;SDS011;21084;51.098;14.506;2023-01-28T05:37:51;49.88;;;23.30;;
34872;SDS011;21084;51.098;14.506;2023-01-28T05:40:20;56.53;;;26.88;;
34872;SDS011;21084;51.098;14.506;2023-01-28T05:42:48;56.25;;;23.58;;
34872;SDS011;21084;51.098;14.506;2023-01-28T05:45:17;58.78;;;19.65;;
34872;SDS011;21084;51.098;14.506;2023-01-28T05:47:47;46.20;;;22.88;;
34872;SDS011;21084;51.098;14.506;2023-01-28T05:50:15;49.22;;;26.52;;
34872;SDS011;21084;51.098;14.506;2023-01-28T05:52:44;49.13;;;24.33;;
34872;SDS011;21084;51.098;14.506;2023-01-28T05:55:12;43.67;;;21.63;;
34872;SDS011;21084;51.098;14.506;2023-01-28T05:57:41;45.45;;;20.08;;
34872;SDS011;21084;51.098;14.506;2023-01-28T06:00:10;40.60;;;20.97;;
34872;SDS011;21084;51.098;14.506;2023-01-28T06:02:41;50.15;;;22.75;;
34872;SDS011;21084;51.098;14.506;2023-01-28T06:05:11;48.75;;;25.25;;
34872;SDS011;21084;51.098;14.506;2023-01-28T06:07:43;40.42;;;20.73;;
34872;SDS011;21084;51.098;14.506;2023-01-28T06:10:12;41.22;;;20.30;;
34872;SDS011;21084;51.098;14.506;2023-01-28T06:12:42;38.95;;;17.85;;
34872;SDS011;21084;51.098;14.506;2023-01-28T06:15:10;30.95;;;15.73;;
34872;SDS011;21084;51.098;14.506;2023-01-28T06:17:39;34.50;;;16.10;;
34872;SDS011;21084;51.098;14.506;2023-01-28T06:20:08;34.10;;;18.05;;
34872;SDS011;21084;51.098;14.506;2023-01-28T06:22:39;31.02;;;14.93;;
34872;SDS011;21084;51.098;14.506;2023-01-28T06:25:08;27.23;;;13.82;;
34872;SDS011;21084;51.098;14.506;2023-01-28T06:27:36;26.50;;;13.57;;
34872;SDS011;21084;51.098;14.506;2023-01-28T06:30:06;26.60;;;13.82;;
34872;SDS011;21084;51.098;14.506;2023-01-28T06:35:03;31.30;;;13.20;;
34872;SDS011;21084;51.098;14.506;2023-01-28T06:37:32;22.58;;;12.88;;
34872;SDS011;21084;51.098;14.506;2023-01-28T06:40:02;22.90;;;11.85;;
34872;SDS011;21084;51.098;14.506;2023-01-28T06:42:31;23.60;;;11.52;;
34872;SDS011;21084;51.098;14.506;2023-01-28T06:44:59;26.00;;;12.05;;
34872;SDS011;21084;51.098;14.506;2023-01-28T06:47:28;22.92;;;11.30;;
34872;SDS011;21084;51.098;14.506;2023-01-28T06:49:56;20.10;;;10.88;;
34872;SDS011;21084;51.098;14.506;2023-01-28T06:52:25;23.15;;;11.18;;
34872;SDS011;21084;51.098;14.506;2023-01-28T06:54:53;20.92;;;11.43;;
34872;SDS011;21084;51.098;14.506;2023-01-28T06:57:23;19.30;;;11.25;;
34872;SDS011;21084;51.098;14.506;2023-01-28T06:59:52;23.30;;;10.27;;
34872;SDS011;21084;51.098;14.506;2023-01-28T07:02:21;16.17;;;9.57;;
34872;SDS011;21084;51.098;14.506;2023-01-28T07:04:52;23.77;;;12.57;;
34872;SDS011;21084;51.098;14.506;2023-01-28T07:07:21;28.30;;;11.63;;
34872;SDS011;21084;51.098;14.506;2023-01-28T07:09:49;19.48;;;10.50;;
34872;SDS011;21084;51.098;14.506;2023-01-28T07:12:18;18.70;;;9.75;;
34872;SDS011;21084;51.098;14.506;2023-01-28T07:14:48;24.40;;;10.88;;
34872;SDS011;21084;51.098;14.506;2023-01-28T07:17:16;16.45;;;9.90;;
34872;SDS011;21084;51.098;14.506;2023-01-28T07:19:45;22.10;;;11.65;;
34872;SDS011;21084;51.098;14.506;2023-01-28T07:22:13;18.23;;;11.20;;
34872;SDS011;21084;51.098;14.506;2023-01-28T07:24:42;20.52;;;11.15;;
34872;SDS011;21084;51.098;14.506;2023-01-28T07:27:10;25.23;;;12.13;;
34872;SDS011;21084;51.098;14.506;2023-01-28T07:29:39;17.00;;;9.85;;
34872;SDS011;21084;51.098;14.506;2023-01-28T07:32:08;17.42;;;8.45;;
34872;SDS011;21084;51.098;14.506;2023-01-28T07:34:37;18.40;;;9.40;;
34872;SDS011;21084;51.098;14.506;2023-01-28T07:37:08;22.00;;;10.52;;
34872;SDS011;21084;51.098;14.506;2023-01-28T07:39:37;19.05;;;9.73;;
34872;SDS011;21084;51.098;14.506;2023-01-28T07:42:05;19.08;;;10.43;;
34872;SDS011;21084;51.098;14.506;2023-01-28T07:44:33;18.65;;;9.55;;
34872;SDS011;21084;51.098;14.506;2023-01-28T07:47:03;21.23;;;9.15;;
34872;SDS011;21084;51.098;14.506;2023-01-28T07:49:33;21.02;;;8.90;;
34872;SDS011;21084;51.098;14.506;2023-01-28T07:52:05;19.98;;;10.30;;
34872;SDS011;21084;51.098;14.506;2023-01-28T07:54:33;23.92;;;11.52;;
34872;SDS011;21084;51.098;14.506;2023-01-28T07:57:06;18.83;;;10.80;;
34872;SDS011;21084;51.098;14.506;2023-01-28T07:59:36;23.48;;;11.00;;
34872;SDS011;21084;51.098;14.506;2023-01-28T08:02:04;20.73;;;11.15;;
34872;SDS011;21084;51.098;14.506;2023-01-28T08:04:34;20.00;;;11.80;;
34872;SDS011;21084;51.098;14.506;2023-01-28T08:07:03;19.90;;;10.02;;
34872;SDS011;21084;51.098;14.506;2023-01-28T08:09:34;17.80;;;9.23;;
34872;SDS011;21084;51.098;14.506;2023-01-28T08:12:02;19.38;;;10.13;;
34872;SDS011;21084;51.098;14.506;2023-01-28T08:14:31;13.43;;;7.67;;
34872;SDS011;21084;51.098;14.506;2023-01-28T08:16:59;13.15;;;7.60;;
34872;SDS011;21084;51.098;14.506;2023-01-28T08:19:28;15.00;;;8.13;;
34872;SDS011;21084;51.098;14.506;2023-01-28T08:21:58;12.95;;;7.05;;
34872;SDS011;21084;51.098;14.506;2023-01-28T08:26:54;12.43;;;6.80;;
34872;SDS011;21084;51.098;14.506;2023-01-28T08:29:23;13.75;;;6.00;;
34872;SDS011;21084;51.098;14.506;2023-01-28T08:31:51;13.77;;;6.85;;
34872;SDS011;21084;51.098;14.506;2023-01-28T08:34:20;22.92;;;9.57;;
34872;SDS011;21084;51.098;14.506;2023-01-28T08:36:48;9.73;;;5.15;;
34872;SDS011;21084;51.098;14.506;2023-01-28T08:39:18;18.65;;;10.77;;
34872;SDS011;21084;51.098;14.506;2023-01-28T08:41:46;17.05;;;6.93;;
34872;SDS011;21084;51.098;14.506;2023-01-28T08:44:15;11.43;;;5.88;;
34872;SDS011;21084;51.098;14.506;2023-01-28T08:46:43;10.45;;;5.90;;
34872;SDS011;21084;51.098;14.506;2023-01-28T08:49:12;18.95;;;8.93;;
34872;SDS011;21084;51.098;14.506;2023-01-28T08:51:40;15.15;;;8.27;;
34872;SDS011;21084;51.098;14.506;2023-01-28T08:54:09;11.82;;;5.72;;
34872;SDS011;21084;51.098;14.506;2023-01-28T08:56:39;13.75;;;6.13;;
34872;SDS011;21084;51.098;14.506;2023-01-28T08:59:10;13.48;;;7.30;;
34872;SDS011;21084;51.098;14.506;2023-01-28T09:01:39;11.05;;;5.70;;
34872;SDS011;21084;51.098;14.506;2023-01-28T09:04:07;22.30;;;9.63;;
34872;SDS011;21084;51.098;14.506;2023-01-28T09:06:36;33.55;;;13.60;;
34872;SDS011;21084;51.098;14.506;2023-01-28T09:09:04;63.58;;;26.67;;
34872;SDS011;21084;51.098;14.506;2023-01-28T09:11:32;19.88;;;9.20;;
34872;SDS011;21084;51.098;14.506;2023-01-28T09:14:02;31.20;;;14.90;;
34872;SDS011;21084;51.098;14.506;2023-01-28T09:16:31;30.23;;;12.85;;
34872;SDS011;21084;51.098;14.506;2023-01-28T09:18:59;24.02;;;10.38;;
34872;SDS011;21084;51.098;14.506;2023-01-28T09:21:28;22.15;;;9.82;;
34872;SDS011;21084;51.098;14.506;2023-01-28T09:23:56;31.63;;;13.48;;
34872;SDS011;21084;51.098;14.506;2023-01-28T09:26:25;14.95;;;7.90;;
34872;SDS011;21084;51.098;14.506;2023-01-28T09:28:53;14.25;;;6.38;;
34872;SDS011;21084;51.098;14.506;2023-01-28T09:31:23;11.65;;;6.28;;
34872;SDS011;21084;51.098;14.506;2023-01-28T09:33:52;14.57;;;6.38;;
34872;SDS011;21084;51.098;14.506;2023-01-28T09:36:22;12.15;;;6.18;;
34872;SDS011;21084;51.098;14.506;2023-01-28T09:38:51;12.43;;;5.93;;
34872;SDS011;21084;51.098;14.506;2023-01-28T09:41:22;10.65;;;5.50;;
34872;SDS011;21084;51.098;14.506;2023-01-28T09:43:56;10.32;;;5.30;;
34872;SDS011;21084;51.098;14.506;2023-01-28T09:46:34;10.65;;;5.93;;
34872;SDS011;21084;51.098;14.506;2023-01-28T09:49:06;10.07;;;5.55;;
34872;SDS011;21084;51.098;14.506;2023-01-28T09:51:46;18.23;;;6.40;;
34872;SDS011;21084;51.098;14.506;2023-01-28T09:54:22;12.65;;;6.45;;
34872;SDS011;21084;51.098;14.506;2023-01-28T09:56:59;10.63;;;5.88;;
34872;SDS011;21084;51.098;14.506;2023-01-28T09:59:32;11.45;;;5.90;;
34872;SDS011;21084;51.098;14.506;2023-01-28T10:02:11;12.35;;;6.53;;
34872;SDS011;21084;51.098;14.506;2023-01-28T10:04:58;8.85;;;5.63;;
34872;SDS011;21084;51.098;14.506;2023-01-28T10:07:38;9.85;;;5.72;;
34872;SDS011;21084;51.098;14.506;2023-01-28T10:10:11;10.23;;;6.43;;
34872;SDS011;21084;51.098;14.506;2023-01-28T10:12:49;12.23;;;5.60;;
34872;SDS011;21084;51.098;14.506;2023-01-28T10:15:45;10.00;;;5.90;;
34872;SDS011;21084;51.098;14.506;2023-01-28T10:18:25;10.40;;;6.38;;
34872;SDS011;21084;51.098;14.506;2023-01-28T10:21:01;8.90;;;5.68;;
34872;SDS011;21084;51.098;14.506;2023-01-28T10:23:38;13.85;;;6.68;;
34872;SDS011;21084;51.098;14.506;2023-01-28T10:26:19;15.90;;;8.10;;
34872;SDS011;21084;51.098;14.506;2023-01-28T10:28:54;20.52;;;10.25;;
34872;SDS011;21084;51.098;14.506;2023-01-28T10:31:26;16.73;;;9.48;;
34872;SDS011;21084;51.098;14.506;2023-01-28T10:34:00;16.15;;;7.30;;
34872;SDS011;21084;51.098;14.506;2023-01-28T10:36:30;16.48;;;8.68;;
34872;SDS011;21084;51.098;14.506;2023-01-28T10:38:58;15.82;;;7.90;;
34872;SDS011;21084;51.098;14.506;2023-01-28T10:41:27;26.65;;;9.73;;
34872;SDS011;21084;51.098;14.506;2023-01-28T10:43:55;12.13;;;7.53;;
34872;SDS011;21084;51.098;14.506;2023-01-28T10:46:25;14.63;;;7.03;;
34872;SDS011;21084;51.098;14.506;2023-01-28T10:49:00;27.50;;;12.65;;
34872;SDS011;21084;51.098;14.506;2023-01-28T10:51:34;19.30;;;11.15;;
34872;SDS011;21084;51.098;14.506;2023-01-28T10:54:16;16.55;;;9.02;;
34872;SDS011;21084;51.098;14.506;2023-01-28T10:56:47;13.50;;;8.70;;
34872;SDS011;21084;51.098;14.506;2023-01-28T10:59:20;11.00;;;5.43;;
34872;SDS011;21084;51.098;14.506;2023-01-28T11:01:53;20.77;;;6.25;;
34872;SDS011;21084;51.098;14.506;2023-01-28T11:04:25;12.02;;;5.75;;
34872;SDS011;21084;51.098;14.506;2023-01-28T11:06:58;11.43;;;6.82;;
34872;SDS011;21084;51.098;14.506;2023-01-28T11:09:28;15.80;;;7.90;;
34872;SDS011;21084;51.098;14.506;2023-01-28T11:12:08;12.65;;;7.90;;
34872;SDS011;21084;51.098;14.506;2023-01-28T11:17:16;9.57;;;5.90;;
34872;SDS011;21084;51.098;14.506;2023-01-28T11:19:47;9.27;;;5.65;;
34872;SDS011;21084;51.098;14.506;2023-01-28T11:22:19;12.23;;;7.03;;
34872;SDS011;21084;51.098;14.506;2023-01-28T11:24:52;9.90;;;6.75;;
34872;SDS011;21084;51.098;14.506;2023-01-28T11:27:22;10.87;;;7.60;;
34872;SDS011;21084;51.098;14.506;2023-01-28T11:29:55;11.88;;;7.72;;
34872;SDS011;21084;51.098;14.506;2023-01-28T11:32:27;10.32;;;7.13;;
34872;SDS011;21084;51.098;14.506;2023-01-28T11:34:58;12.80;;;7.78;;
34872;SDS011;21084;51.098;14.506;2023-01-28T11:37:27;15.25;;;8.00;;
34872;SDS011;21084;51.098;14.506;2023-01-28T11:40:03;16.25;;;9.00;;
34872;SDS011;21084;51.098;14.506;2023-01-28T11:42:48;13.35;;;8.52;;
34872;SDS011;21084;51.098;14.506;2023-01-28T11:45:18;17.75;;;8.80;;
34872;SDS011;21084;51.098;14.506;2023-01-28T11:47:57;13.82;;;8.80;;
34872;SDS011;21084;51.098;14.506;2023-01-28T11:50:40;18.10;;;8.55;;
34872;SDS011;21084;51.098;14.506;2023-01-28T11:53:24;17.33;;;8.95;;
34872;SDS011;21084;51.098;14.506;2023-01-28T11:56:10;14.60;;;8.32;;
34872;SDS011;21084;51.098;14.506;2023-01-28T11:58:51;19.27;;;10.20;;
34872;SDS011;21084;51.098;14.506;2023-01-28T12:01:29;16.23;;;9.90;;
34872;SDS011;21084;51.098;14.506;2023-01-28T12:04:15;19.33;;;10.07;;
34872;SDS011;21084;51.098;14.506;2023-01-28T12:07:04;16.85;;;9.57;;
34872;SDS011;21084;51.098;14.506;2023-01-28T12:09:45;17.10;;;9.35;;
34872;SDS011;21084;51.098;14.506;2023-01-28T12:12:29;15.30;;;9.35;;
34872;SDS011;21084;51.098;14.506;2023-01-28T12:15:24;11.27;;;7.03;;
34872;SDS011;21084;51.098;14.506;2023-01-28T12:18:06;17.60;;;8.10;;
34872;SDS011;21084;51.098;14.506;2023-01-28T12:20:47;15.80;;;6.97;;
34872;SDS011;21084;51.098;14.506;2023-01-28T12:23:31;13.57;;;6.20;;
34872;SDS011;21084;51.098;14.506;2023-01-28T12:26:18;9.90;;;5.93;;
34872;SDS011;21084;51.098;14.506;2023-01-28T12:28:56;8.57;;;5.35;;
34872;SDS011;21084;51.098;14.506;2023-01-28T12:31:47;9.10;;;5.90;;
34872;SDS011;21084;51.098;14.506;2023-01-28T12:34:34;12.23;;;6.35;;
34872;SDS011;21084;51.098;14.506;2023-01-28T12:37:15;9.90;;;6.20;;
34872;SDS011;21084;51.098;14.506;2023-01-28T12:39:57;11.02;;;5.63;;
34872;SDS011;21084;51.098;14.506;2023-01-28T12:42:37;13.82;;;7.03;;
34872;SDS011;21084;51.098;14.506;2023-01-28T12:45:32;9.98;;;6.13;;
34872;SDS011;21084;51.098;14.506;2023-01-28T12:48:08;10.65;;;6.40;;
34872;SDS011;21084;51.098;14.506;2023-01-28T12:50:40;17.10;;;7.97;;
34872;SDS011;21084;51.098;14.506;2023-01-28T12:53:16;17.67;;;9.00;;
34872;SDS011;21084;51.098;14.506;2023-01-28T12:55:52;9.57;;;5.20;;
34872;SDS011;21084;51.098;14.506;2023-01-28T12:58:29;8.10;;;5.20;;
34872;SDS011;21084;51.098;14.506;2023-01-28T13:01:05;9.52;;;5.30;;
34872;SDS011;21084;51.098;14.506;2023-01-28T13:03:37;12.48;;;6.00;;
34872;SDS011;21084;51.098;14.506;2023-01-28T13:06:09;7.43;;;4.28;;
34872;SDS011;21084;51.098;14.506;2023-01-28T13:08:42;9.20;;;5.47;;
34872;SDS011;21084;51.098;14.506;2023-01-28T13:11:13;9.65;;;5.57;;
34872;SDS011;21084;51.098;14.506;2023-01-28T13:13:44;11.45;;;6.47;;
34872;SDS011;21084;51.098;14.506;2023-01-28T13:16:13;12.80;;;5.55;;
34872;SDS011;21084;51.098;14.506;2023-01-28T13:18:45;11.82;;;7.15;;
34872;SDS011;21084;51.098;14.506;2023-01-28T13:21:15;21.37;;;9.23;;
34872;SDS011;21084;51.098;14.506;2023-01-28T13:27:42;7.25;;;4.60;;
34872;SDS011;21084;51.098;14.506;2023-01-28T13:30:23;8.32;;;4.43;;
34872;SDS011;21084;51.098;14.506;2023-01-28T13:32:54;10.52;;;4.95;;
34872;SDS011;21084;51.098;14.506;2023-01-28T13:35:27;8.90;;;5.10;;
34872;SDS011;21084;51.098;14.506;2023-01-28T13:37:58;8.77;;;5.13;;
34872;SDS011;21084;51.098;14.506;2023-01-28T13:40:34;13.88;;;6.05;;
34872;SDS011;21084;51.098;14.506;2023-01-28T13:43:05;9.15;;;5.78;;
34872;SDS011;21084;51.098;14.506;2023-01-28T13:45:55;11.20;;;6.20;;
34872;SDS011;21084;51.098;14.506;2023-01-28T13:48:28;12.82;;;7.32;;
34872;SDS011;21084;51.098;14.506;2023-01-28T13:50:59;7.15;;;5.03;;
34872;SDS011;21084;51.098;14.506;2023-01-28T13:53:34;8.90;;;5.05;;
34872;SDS011;21084;51.098;14.506;2023-01-28T13:56:14;10.23;;;5.35;;
34872;SDS011;21084;51.098;14.506;2023-01-28T14:02:09;11.85;;;6.45;;
34872;SDS011;21084;51.098;14.506;2023-01-28T14:05:27;15.82;;;7.25;;
34872;SDS011;21084;51.098;14.506;2023-01-28T14:11:18;8.35;;;5.10;;
34872;SDS011;21084;51.098;14.506;2023-01-28T14:14:23;9.27;;;5.30;;
34872;SDS011;21084;51.098;14.506;2023-01-28T14:17:20;8.88;;;5.50;;
34872;SDS011;21084;51.098;14.506;2023-01-28T14:19:57;11.55;;;5.88;;
34872;SDS011;21084;51.098;14.506;2023-01-28T14:22:27;9.60;;;5.78;;
34872;SDS011;21084;51.098;14.506;2023-01-28T14:24:56;8.63;;;6.70;;
34872;SDS011;21084;51.098;14.506;2023-01-28T14:27:28;10.18;;;6.28;;
34872;SDS011;21084;51.098;14.506;2023-01-28T14:30:05;9.70;;;6.18;;
34872;SDS011;21084;51.098;14.506;2023-01-28T14:32:44;9.90;;;5.97;;
34872;SDS011;21084;51.098;14.506;2023-01-28T14:35:16;15.68;;;8.30;;
34872;SDS011;21084;51.098;14.506;2023-01-28T14:37:48;12.95;;;7.60;;
34872;SDS011;21084;51.098;14.506;2023-01-28T14:40:18;12.20;;;8.15;;
34872;SDS011;21084;51.098;14.506;2023-01-28T14:42:48;14.05;;;8.50;;
34872;SDS011;21084;51.098;14.506;2023-01-28T14:45:24;14.95;;;9.05;;
34872;SDS011;21084;51.098;14.506;2023-01-28T14:48:10;13.75;;;8.70;;
34872;SDS011;21084;51.098;14.506;2023-01-28T14:50:52;13.85;;;8.75;;
34872;SDS011;21084;51.098;14.506;2023-01-28T14:56:44;15.43;;;9.52;;
34872;SDS011;21084;51.098;14.506;2023-01-28T14:59:23;12.73;;;8.63;;
34872;SDS011;21084;51.098;14.506;2023-01-28T15:01:54;15.40;;;8.93;;
34872;SDS011;21084;51.098;14.506;2023-01-28T15:04:26;17.40;;;9.35;;
34872;SDS011;21084;51.098;14.506;2023-01-28T15:06:56;16.27;;;9.90;;
34872;SDS011;21084;51.098;14.506;2023-01-28T15:09:29;14.60;;;8.73;;
34872;SDS011;21084;51.098;14.506;2023-01-28T15:11:57;11.88;;;8.50;;
34872;SDS011;21084;51.098;14.506;2023-01-28T15:14:30;15.65;;;8.80;;
34872;SDS011;21084;51.098;14.506;2023-01-28T15:16:59;15.60;;;9.35;;
34872;SDS011;21084;51.098;14.506;2023-01-28T15:19:30;16.83;;;10.15;;
34872;SDS011;21084;51.098;14.506;2023-01-28T15:22:02;13.82;;;9.57;;
34872;SDS011;21084;51.098;14.506;2023-01-28T15:24:32;17.55;;;10.52;;